createdAt,value
2023-01-09T00:02:26.019Z,5.90
2023-01-09T00:04:52.987Z,6.00
2023-01-09T00:07:19.784Z,6.00
2023-01-09T00:09:46.595Z,6.35
2023-01-09T00:12:13.338Z,6.38
2023-01-09T00:14:40.088Z,6.70
2023-01-09T00:17:10.429Z,6.43
2023-01-09T00:19:37.744Z,7.40
2023-01-09T00:22:04.500Z,6.70
2023-01-09T00:24:31.472Z,6.60
2023-01-09T00:26:58.240Z,6.60
2023-01-09T00:29:25.036Z,6.70
2023-01-09T00:34:38.893Z,6.47
2023-01-09T00:37:06.295Z,6.50
2023-01-09T00:39:33.063Z,6.40
2023-01-09T00:42:00.288Z,6.30
2023-01-09T00:44:33.317Z,6.10
2023-01-09T00:47:04.883Z,5.55
2023-01-09T00:49:34.699Z,5.40
2023-01-09T00:54:50.735Z,5.53
2023-01-09T01:00:04.651Z,5.13
2023-01-09T01:02:31.545Z,4.80
2023-01-09T01:04:58.382Z,5.07
2023-01-09T01:07:25.161Z,5.03
2023-01-09T01:09:51.920Z,5.30
2023-01-09T01:12:18.727Z,5.30
2023-01-09T01:14:45.512Z,5.60
2023-01-09T01:17:12.236Z,5.60
2023-01-09T01:19:39.061Z,5.65
2023-01-09T01:22:05.917Z,5.70
2023-01-09T01:24:33.386Z,6.10
2023-01-09T01:27:00.212Z,5.80
2023-01-09T01:29:27.184Z,5.70
2023-01-09T01:31:54.238Z,5.60
2023-01-09T01:34:21.126Z,6.10
2023-01-09T01:36:47.927Z,6.60
2023-01-09T01:39:14.700Z,6.72
2023-01-09T01:41:41.458Z,5.72
2023-01-09T01:44:46.697Z,5.82
2023-01-09T01:47:14.664Z,6.30
2023-01-09T01:49:41.560Z,6.35
2023-01-09T01:52:08.556Z,6.60
2023-01-09T01:54:35.340Z,6.30
2023-01-09T01:57:03.858Z,6.78
2023-01-09T01:59:47.766Z,7.20
2023-01-09T02:02:14.798Z,6.90
2023-01-09T02:07:29.007Z,8.23
2023-01-09T02:12:43.702Z,8.40
2023-01-09T02:18:08.643Z,8.90
2023-01-09T02:20:38.279Z,9.15
2023-01-09T02:26:56.322Z,9.70
2023-01-09T02:29:40.962Z,9.50
2023-01-09T02:32:36.864Z,10.30
2023-01-09T02:35:30.176Z,10.00
2023-01-09T02:38:01.310Z,10.30
2023-01-09T02:40:39.303Z,10.87
2023-01-09T02:43:08.239Z,10.68
2023-01-09T02:45:35.061Z,10.07
2023-01-09T02:48:01.835Z,9.80
2023-01-09T02:50:47.579Z,10.60
2023-01-09T02:53:35.562Z,10.25
2023-01-09T02:56:28.468Z,9.80
2023-01-09T02:59:18.125Z,10.00
2023-01-09T03:01:54.384Z,9.70
2023-01-09T03:04:30.626Z,9.20
2023-01-09T03:07:17.380Z,9.70
2023-01-09T03:09:48.234Z,8.95
2023-01-09T03:12:20.409Z,9.13
2023-01-09T03:14:50.814Z,9.50
2023-01-09T03:17:41.143Z,9.00
2023-01-09T03:20:10.822Z,8.50
2023-01-09T03:25:11.497Z,8.80
2023-01-09T03:27:38.677Z,8.80
2023-01-09T03:30:06.738Z,9.18
2023-01-09T03:32:33.938Z,9.05
2023-01-09T03:35:00.773Z,8.85
2023-01-09T03:37:28.358Z,8.67
2023-01-09T03:39:55.854Z,8.82
2023-01-09T03:42:22.687Z,8.43
2023-01-09T03:47:36.808Z,8.40
2023-01-09T03:52:53.447Z,8.80
2023-01-09T03:57:47.476Z,8.10
2023-01-09T04:00:14.658Z,8.30
2023-01-09T04:02:41.515Z,8.25
2023-01-09T04:05:08.556Z,7.60
2023-01-09T04:07:35.303Z,7.67
2023-01-09T04:10:02.130Z,8.32
2023-01-09T04:12:28.874Z,7.63
2023-01-09T04:14:55.632Z,8.00
2023-01-09T04:17:22.398Z,8.20
2023-01-09T04:19:49.156Z,8.40
2023-01-09T04:22:15.923Z,8.10
2023-01-09T04:24:42.653Z,8.20
2023-01-09T04:27:09.408Z,8.40
2023-01-09T04:29:36.169Z,7.80
2023-01-09T04:32:02.977Z,7.40
2023-01-09T04:34:29.806Z,8.02
2023-01-09T04:36:56.569Z,7.70
2023-01-09T04:39:23.395Z,7.03
2023-01-09T04:41:50.212Z,7.32
2023-01-09T04:44:18.692Z,7.35
2023-01-09T04:46:45.528Z,7.10
2023-01-09T04:49:12.457Z,7.80
2023-01-09T04:51:39.375Z,8.93
2023-01-09T04:54:06.966Z,8.50
2023-01-09T04:56:33.804Z,7.60
2023-01-09T04:59:00.633Z,7.80
2023-01-09T05:01:27.503Z,7.70
2023-01-09T05:06:41.010Z,7.50
2023-01-09T05:11:54.634Z,7.70
2023-01-09T05:17:08.171Z,8.60
2023-01-09T05:19:34.903Z,7.90
2023-01-09T05:22:01.776Z,9.00
2023-01-09T05:24:28.575Z,8.60
2023-01-09T05:26:55.365Z,8.88
2023-01-09T05:29:22.185Z,8.70
2023-01-09T05:31:48.969Z,8.80
2023-01-09T05:34:15.792Z,8.75
2023-01-09T05:36:42.532Z,8.60
2023-01-09T05:39:09.393Z,8.80
2023-01-09T05:41:36.162Z,9.80
2023-01-09T05:44:03.032Z,10.10
2023-01-09T05:46:29.813Z,9.93
2023-01-09T05:48:56.736Z,10.07
2023-01-09T05:51:23.854Z,10.60
2023-01-09T05:53:50.642Z,10.85
2023-01-09T05:56:17.424Z,11.13
2023-01-09T05:58:44.212Z,11.60
2023-01-09T06:01:10.952Z,11.60
2023-01-09T06:03:37.679Z,12.65
2023-01-09T06:08:51.345Z,13.57
2023-01-09T06:14:05.867Z,13.40
2023-01-09T06:16:32.765Z,13.27
2023-01-09T06:18:59.530Z,13.65
2023-01-09T06:21:26.281Z,13.73
2023-01-09T06:23:53.090Z,14.77
2023-01-09T06:26:19.826Z,14.05
2023-01-09T06:28:46.567Z,16.30
2023-01-09T06:31:13.467Z,16.75
2023-01-09T06:33:40.688Z,15.52
2023-01-09T06:36:07.810Z,21.70
2023-01-09T06:38:34.584Z,15.95
2023-01-09T06:41:01.397Z,16.80
2023-01-09T06:41:51.764Z,0
2023-01-09T06:43:28.180Z,16.30
2023-01-09T06:45:54.993Z,15.75
2023-01-09T06:48:21.985Z,16.30
2023-01-09T06:50:49.080Z,17.23
2023-01-09T06:53:15.823Z,14.80
2023-01-09T06:58:29.549Z,14.80
2023-01-09T07:03:44.771Z,15.43
2023-01-09T07:08:58.220Z,15.63
2023-01-09T07:14:11.710Z,15.30
2023-01-09T07:16:38.490Z,15.00
2023-01-09T07:19:05.227Z,15.40
2023-01-09T07:21:32.896Z,15.48
2023-01-09T07:23:59.822Z,14.90
2023-01-09T07:26:26.633Z,15.40
2023-01-09T07:28:53.424Z,15.13
2023-01-09T07:31:20.200Z,16.00
2023-01-09T07:33:46.967Z,16.30
2023-01-09T07:36:13.769Z,17.38
2023-01-09T07:38:40.577Z,16.80
2023-01-09T07:41:07.360Z,17.63
2023-01-09T07:43:34.117Z,17.55
2023-01-09T07:46:00.941Z,17.15
2023-01-09T07:48:27.705Z,18.08
2023-01-09T07:50:54.470Z,18.33
2023-01-09T07:53:21.270Z,18.52
2023-01-09T07:55:48.057Z,18.88
2023-01-09T07:58:14.829Z,16.73
2023-01-09T08:00:41.593Z,20.40
2023-01-09T08:05:55.183Z,16.40
2023-01-09T08:11:08.682Z,15.98
2023-01-09T08:13:35.490Z,15.95
2023-01-09T08:16:02.331Z,21.50
2023-01-09T08:18:40.162Z,15.80
2023-01-09T08:23:53.598Z,16.98
2023-01-09T08:29:07.059Z,16.50
2023-01-09T08:31:33.848Z,15.75
2023-01-09T08:34:00.672Z,15.90
2023-01-09T08:36:27.455Z,15.88
2023-01-09T08:38:54.208Z,16.02
2023-01-09T08:41:20.973Z,14.68
2023-01-09T08:43:47.747Z,14.68
2023-01-09T08:46:20.964Z,15.10
2023-01-09T08:48:47.892Z,15.77
2023-01-09T08:51:15.038Z,14.18
2023-01-09T08:53:41.867Z,13.10
2023-01-09T08:56:08.724Z,13.70
2023-01-09T08:58:35.529Z,13.37
2023-01-09T09:03:53.220Z,13.30
2023-01-09T09:06:19.994Z,14.17
2023-01-09T09:08:46.833Z,14.20
2023-01-09T09:11:13.620Z,13.35
2023-01-09T09:13:40.352Z,15.00
2023-01-09T09:16:07.502Z,12.90
2023-01-09T09:18:34.348Z,11.60
2023-01-09T09:21:01.212Z,12.20
2023-01-09T09:23:27.971Z,11.53
2023-01-09T09:25:54.706Z,11.93
2023-01-09T09:28:21.487Z,9.30
2023-01-09T09:33:34.986Z,10.20
2023-01-09T09:38:51.297Z,9.90
2023-01-09T09:40:22.344Z,0
2023-01-09T09:44:32.821Z,12.10
2023-01-09T09:47:26.843Z,9.10
2023-01-09T09:50:26.371Z,7.90
2023-01-09T09:53:14.053Z,6.40
2023-01-09T09:55:41.965Z,6.70
2023-01-09T09:58:36.096Z,5.85
2023-01-09T10:01:05.621Z,5.10
2023-01-09T10:06:30.193Z,4.40
2023-01-09T10:09:30.892Z,4.30
2023-01-09T10:12:03.345Z,4.25
2023-01-09T10:20:44.242Z,3.60
2023-01-09T10:23:20.200Z,3.55
2023-01-09T10:25:56.937Z,3.30
2023-01-09T10:29:03.307Z,3.40
2023-01-09T10:31:36.118Z,3.47
2023-01-09T10:34:48.688Z,3.90
2023-01-09T10:37:18.293Z,20.73
2023-01-09T10:39:50.122Z,13.52
2023-01-09T10:42:44.614Z,8.45
2023-01-09T10:51:56.068Z,4.00
2023-01-09T10:54:23.298Z,3.40
2023-01-09T10:59:31.914Z,3.53
2023-01-09T11:01:59.226Z,3.40
2023-01-09T11:04:39.264Z,3.70
2023-01-09T11:07:26.977Z,2.90
2023-01-09T11:10:11.188Z,2.90
2023-01-09T11:12:39.118Z,3.50
2023-01-09T11:15:18.125Z,3.00
2023-01-09T11:17:48.286Z,2.80
2023-01-09T11:20:29.416Z,3.10
2023-01-09T11:22:58.042Z,3.20
2023-01-09T11:25:27.747Z,3.40
2023-01-09T11:28:20.937Z,5.95
2023-01-09T11:33:48.482Z,3.92
2023-01-09T11:36:16.132Z,2.92
2023-01-09T11:38:58.714Z,2.60
2023-01-09T11:41:32.305Z,2.60
2023-01-09T11:43:59.924Z,2.47
2023-01-09T11:49:30.406Z,2.60
2023-01-09T11:52:21.451Z,2.30
2023-01-09T11:57:56.988Z,2.65
2023-01-09T12:03:44.052Z,2.65
2023-01-09T12:06:24.936Z,2.58
2023-01-09T12:09:06.127Z,2.40
2023-01-09T12:15:05.905Z,2.78
2023-01-09T12:17:49.375Z,2.40
2023-01-09T12:20:25.040Z,2.35
2023-01-09T12:23:17.448Z,2.20
2023-01-09T12:32:06.909Z,2.40
2023-01-09T12:34:33.657Z,2.50
2023-01-09T12:37:47.304Z,2.40
2023-01-09T12:40:16.924Z,2.30
2023-01-09T12:42:53.357Z,2.15
2023-01-09T12:45:23.116Z,3.10
2023-01-09T12:47:51.248Z,3.10
2023-01-09T12:50:54.864Z,3.50
2023-01-09T12:53:34.586Z,2.58
2023-01-09T12:56:09.487Z,2.70
2023-01-09T12:59:12.668Z,2.85
2023-01-09T13:04:41.428Z,2.60
2023-01-09T13:07:21.212Z,2.80
2023-01-09T13:10:02.649Z,2.53
2023-01-09T13:12:36.874Z,3.20
2023-01-09T13:15:15.001Z,3.60
2023-01-09T13:20:52.941Z,2.75
2023-01-09T13:23:52.456Z,3.03
2023-01-09T13:26:25.496Z,2.70
2023-01-09T13:29:08.681Z,2.70
2023-01-09T13:31:52.983Z,2.50
2023-01-09T13:34:26.817Z,2.53
2023-01-09T13:36:56.491Z,2.88
2023-01-09T13:39:35.064Z,2.80
2023-01-09T13:44:56.387Z,2.70
2023-01-09T13:47:28.605Z,4.15
2023-01-09T13:50:01.902Z,3.55
2023-01-09T13:55:13.559Z,3.20
2023-01-09T13:58:06.657Z,3.78
2023-01-09T14:00:36.552Z,3.30
2023-01-09T14:03:09.552Z,3.30
2023-01-09T14:05:36.296Z,3.30
2023-01-09T14:08:11.912Z,2.90
2023-01-09T14:13:38.108Z,3.10
2023-01-09T14:16:06.648Z,3.10
2023-01-09T14:18:36.751Z,3.53
2023-01-09T14:21:11.988Z,4.20
2023-01-09T14:24:03.533Z,3.22
2023-01-09T14:24:08.156Z,0
2023-01-09T14:26:50.132Z,3.00
2023-01-09T14:32:24.865Z,3.50
2023-01-09T14:34:58.660Z,3.63
2023-01-09T14:37:28.055Z,3.65
2023-01-09T14:39:56.578Z,3.40
2023-01-09T14:42:28.319Z,3.45
2023-01-09T14:45:01.521Z,3.00
2023-01-09T14:47:31.026Z,3.65
2023-01-09T14:50:03.968Z,3.40
2023-01-09T14:52:35.421Z,3.33
2023-01-09T14:55:05.869Z,3.10
2023-01-09T14:57:34.590Z,3.70
2023-01-09T15:00:15.547Z,3.90
2023-01-09T15:02:44.117Z,4.20
2023-01-09T15:05:15.387Z,3.40
2023-01-09T15:07:58.135Z,3.60
2023-01-09T15:10:37.272Z,3.22
2023-01-09T15:13:08.217Z,3.63
2023-01-09T15:15:35.982Z,3.35
2023-01-09T15:21:01.072Z,3.60
2023-01-09T15:23:29.864Z,3.70
2023-01-09T15:25:42.713Z,0
2023-01-09T15:26:11.678Z,3.60
2023-01-09T15:28:43.536Z,3.60
2023-01-09T15:31:15.677Z,3.80
2023-01-09T15:33:44.628Z,5.85
2023-01-09T15:36:16.676Z,4.90
2023-01-09T15:38:44.154Z,4.18
2023-01-09T15:41:17.912Z,4.35
2023-01-09T15:46:31.868Z,4.50
2023-01-09T15:51:48.699Z,4.10
2023-01-09T15:54:31.898Z,4.20
2023-01-09T15:57:23.228Z,4.20
2023-01-09T15:59:50.038Z,4.00
2023-01-09T16:02:17.584Z,4.32
2023-01-09T16:04:44.522Z,3.92
2023-01-09T16:07:16.941Z,3.97
2023-01-09T16:09:46.176Z,4.40
2023-01-09T16:12:25.282Z,4.05
2023-01-09T16:14:55.800Z,3.53
2023-01-09T16:17:23.369Z,3.83
2023-01-09T16:19:58.544Z,3.60
2023-01-09T16:22:33.564Z,3.97
2023-01-09T16:25:20.473Z,3.78
2023-01-09T16:28:15.798Z,3.50
2023-01-09T16:30:58.061Z,4.10
2023-01-09T16:33:27.650Z,4.10
2023-01-09T16:35:54.563Z,4.57
2023-01-09T16:38:21.702Z,4.53
2023-01-09T16:41:03.343Z,8.65
2023-01-09T16:43:30.096Z,5.30
2023-01-09T16:45:56.873Z,5.20
2023-01-09T16:48:23.672Z,5.00
2023-01-09T16:50:50.465Z,5.05
2023-01-09T16:56:16.027Z,5.10
2023-01-09T16:58:42.948Z,5.43
2023-01-09T17:01:09.829Z,6.53
2023-01-09T17:03:37.044Z,5.60
2023-01-09T17:08:51.482Z,7.38
2023-01-09T17:11:26.839Z,6.20
2023-01-09T17:13:53.645Z,7.70
2023-01-09T17:16:20.468Z,6.75
2023-01-09T17:21:34.040Z,9.45
2023-01-09T17:26:50.729Z,7.50
2023-01-09T17:32:04.414Z,7.10
2023-01-09T17:34:31.357Z,8.03
2023-01-09T17:36:58.195Z,8.10
2023-01-09T17:39:25.031Z,8.27
2023-01-09T17:41:51.806Z,8.60
2023-01-09T17:44:18.560Z,8.60
2023-01-09T17:46:45.366Z,8.40
2023-01-09T17:49:20.387Z,8.70
2023-01-09T17:51:47.292Z,9.87
2023-01-09T17:54:14.506Z,8.15
2023-01-09T17:56:45.178Z,8.55
2023-01-09T17:59:15.706Z,8.63
2023-01-09T18:01:43.738Z,7.85
2023-01-09T18:04:11.359Z,8.40
2023-01-09T18:06:38.205Z,8.50
2023-01-09T18:09:06.429Z,8.95
2023-01-09T18:11:33.217Z,7.75
2023-01-09T18:14:00.052Z,6.70
2023-01-09T18:16:28.256Z,5.45
2023-01-09T18:21:44.221Z,5.72
2023-01-09T18:24:10.966Z,7.80
2023-01-09T18:26:38.079Z,6.40
2023-01-09T18:29:04.833Z,6.40
2023-01-09T18:31:31.611Z,5.68
2023-01-09T18:33:59.550Z,5.50
2023-01-09T18:36:28.150Z,5.03
2023-01-09T18:38:55.659Z,5.20
2023-01-09T18:41:23.349Z,5.63
2023-01-09T18:43:54.624Z,5.45
2023-01-09T18:46:21.523Z,5.10
2023-01-09T18:48:55.758Z,5.30
2023-01-09T18:51:24.461Z,4.95
2023-01-09T18:56:39.428Z,5.20
2023-01-09T19:01:53.378Z,5.20
2023-01-09T19:04:20.198Z,5.40
2023-01-09T19:06:47.001Z,5.57
2023-01-09T19:09:13.837Z,5.00
2023-01-09T19:11:40.559Z,5.50
2023-01-09T19:14:07.328Z,8.48
2023-01-09T19:16:34.130Z,13.18
2023-01-09T19:19:00.944Z,5.40
2023-01-09T19:21:27.738Z,6.50
2023-01-09T19:23:54.535Z,5.50
2023-01-09T19:26:26.343Z,4.68
2023-01-09T19:28:54.667Z,5.22
2023-01-09T19:31:21.938Z,5.00
2023-01-09T19:33:48.700Z,5.20
2023-01-09T19:36:15.463Z,5.03
2023-01-09T19:38:42.386Z,8.43
2023-01-09T19:41:18.532Z,6.80
2023-01-09T19:43:46.081Z,5.20
2023-01-09T19:46:15.266Z,6.07
2023-01-09T19:48:42.438Z,7.07
2023-01-09T19:51:09.784Z,5.03
2023-01-09T19:53:37.154Z,4.85
2023-01-09T19:54:01.495Z,0
2023-01-09T19:56:23.644Z,5.45
2023-01-09T19:58:52.821Z,5.65
2023-01-09T20:01:22.198Z,7.05
2023-01-09T20:03:49.117Z,8.52
2023-01-09T20:06:18.616Z,12.38
2023-01-09T20:08:46.745Z,14.00
2023-01-09T20:11:14.565Z,10.73
2023-01-09T20:13:41.894Z,8.00
2023-01-09T20:19:02.614Z,6.30
2023-01-09T20:21:26.553Z,0
2023-01-09T20:24:16.806Z,5.88
2023-01-09T20:29:30.462Z,6.97
2023-01-09T20:31:57.237Z,6.43
2023-01-09T20:34:24.047Z,6.40
2023-01-09T20:36:50.956Z,7.40
2023-01-09T20:39:17.777Z,6.60
2023-01-09T20:41:44.544Z,8.27
2023-01-09T20:44:14.046Z,28.60
2023-01-09T20:46:43.715Z,21.02
2023-01-09T20:49:12.760Z,10.32
2023-01-09T20:51:45.954Z,8.30
2023-01-09T20:57:00.159Z,6.82
2023-01-09T21:02:14.414Z,6.10
2023-01-09T21:07:28.057Z,5.60
2023-01-09T21:12:41.841Z,6.60
2023-01-09T21:15:10.367Z,6.63
2023-01-09T21:17:39.813Z,7.23
2023-01-09T21:20:10.080Z,7.60
2023-01-09T21:25:23.837Z,9.80
2023-01-09T21:27:50.598Z,11.10
2023-01-09T21:30:17.408Z,11.80
2023-01-09T21:32:44.148Z,12.70
2023-01-09T21:35:10.991Z,12.25
2023-01-09T21:37:37.861Z,13.27
2023-01-09T21:40:05.544Z,13.47
2023-01-09T21:42:32.281Z,15.50
2023-01-09T21:44:58.994Z,15.80
2023-01-09T21:47:25.761Z,16.70
2023-01-09T21:49:52.573Z,17.38
2023-01-09T21:52:19.333Z,17.70
2023-01-09T21:54:46.102Z,19.55
2023-01-09T21:57:12.904Z,20.83
2023-01-09T21:59:39.668Z,22.80
2023-01-09T22:02:09.174Z,21.92
2023-01-09T22:04:35.928Z,22.92
2023-01-09T22:07:02.706Z,21.40
2023-01-09T22:09:29.433Z,21.40
2023-01-09T22:11:56.523Z,20.35
2023-01-09T22:14:23.432Z,23.27
2023-01-09T22:16:50.193Z,22.10
2023-01-09T22:19:17.065Z,19.80
2023-01-09T22:24:30.567Z,22.23
2023-01-09T22:29:43.953Z,22.40
2023-01-09T22:32:10.723Z,23.60
2023-01-09T22:34:37.461Z,24.75
2023-01-09T22:37:04.285Z,25.90
2023-01-09T22:39:31.115Z,26.17
2023-01-09T22:41:57.863Z,26.10
2023-01-09T22:44:24.578Z,28.85
2023-01-09T22:46:51.317Z,27.85
2023-01-09T22:49:18.083Z,27.98
2023-01-09T22:51:44.850Z,29.00
2023-01-09T22:54:11.588Z,28.40
2023-01-09T22:56:38.587Z,29.50
2023-01-09T22:59:05.440Z,27.38
2023-01-09T23:01:32.240Z,30.75
2023-01-09T23:03:59.047Z,28.70
2023-01-09T23:06:25.810Z,32.70
2023-01-09T23:08:53.093Z,29.60
2023-01-09T23:11:30.584Z,30.20
2023-01-09T23:13:57.337Z,30.75
2023-01-09T23:16:24.120Z,29.40
2023-01-09T23:18:50.918Z,30.42
2023-01-09T23:21:17.932Z,33.33
2023-01-09T23:23:44.958Z,32.65
2023-01-09T23:26:11.922Z,32.30
2023-01-09T23:28:38.679Z,32.33
2023-01-09T23:31:05.503Z,34.00
2023-01-09T23:33:32.300Z,33.40
2023-01-09T23:35:59.050Z,34.88
2023-01-09T23:38:25.814Z,35.40
2023-01-09T23:40:56.612Z,35.03
2023-01-09T23:43:23.735Z,36.45
2023-01-09T23:45:51.648Z,36.28
2023-01-09T23:48:19.320Z,34.20
2023-01-09T23:50:50.799Z,36.60
2023-01-09T23:53:19.253Z,38.00
2023-01-09T23:58:33.011Z,35.80
